sensor_id;sensor_type;location;lat;lon;timestamp;pressure;altitude;pressure_sealevel;temperature;humidity
70571;BME280;58135;50.948;-1.458;2022-08-02T00:02:25;101392.83;;;20.78;14.71
70571;BME280;58135;50.948;-1.458;2022-08-02T00:04:50;101395.23;;;22.47;14.67
70571;BME280;58135;50.948;-1.458;2022-08-02T00:07:16;101397.97;;;21.47;14.60
70571;BME280;58135;50.948;-1.458;2022-08-02T00:09:41;101397.88;;;21.49;14.45
70571;BME280;58135;50.948;-1.458;2022-08-02T00:12:07;101392.69;;;21.39;14.34
70571;BME280;58135;50.948;-1.458;2022-08-02T00:14:32;101384.89;;;20.35;14.51
70571;BME280;58135;50.948;-1.458;2022-08-02T00:16:58;101384.96;;;21.12;13.73
70571;BME280;58135;50.948;-1.458;2022-08-02T00:19:23;101392.86;;;21.15;14.36
70571;BME280;58135;50.948;-1.458;2022-08-02T00:21:49;101397.35;;;21.17;14.63
70571;BME280;58135;50.948;-1.458;2022-08-02T00:24:14;101395.81;;;22.11;14.85
70571;BME280;58135;50.948;-1.458;2022-08-02T00:26:40;101392.70;;;21.22;14.38
70571;BME280;58135;50.948;-1.458;2022-08-02T00:29:05;101385.25;;;20.19;13.93
70571;BME280;58135;50.948;-1.458;2022-08-02T00:31:31;101384.37;;;20.03;14.26
70571;BME280;58135;50.948;-1.458;2022-08-02T00:33:56;101387.78;;;19.87;14.39
70571;BME280;58135;50.948;-1.458;2022-08-02T00:36:22;101384.90;;;20.80;14.65
70571;BME280;58135;50.948;-1.458;2022-08-02T00:38:47;101378.00;;;20.04;14.08
70571;BME280;58135;50.948;-1.458;2022-08-02T00:41:15;101373.73;;;22.72;14.55
70571;BME280;58135;50.948;-1.458;2022-08-02T00:43:38;101370.92;;;20.02;14.57
70571;BME280;58135;50.948;-1.458;2022-08-02T00:46:04;101364.61;;;21.91;14.70
70571;BME280;58135;50.948;-1.458;2022-08-02T00:48:29;101365.51;;;21.09;14.57
70571;BME280;58135;50.948;-1.458;2022-08-02T00:50:55;101368.67;;;21.07;14.58
70571;BME280;58135;50.948;-1.458;2022-08-02T00:53:20;101366.31;;;21.12;14.68
70571;BME280;58135;50.948;-1.458;2022-08-02T00:55:46;101364.46;;;20.29;14.53
70571;BME280;58135;50.948;-1.458;2022-08-02T00:58:11;101364.51;;;20.38;14.68
70571;BME280;58135;50.948;-1.458;2022-08-02T01:00:37;101359.24;;;20.33;14.53
70571;BME280;58135;50.948;-1.458;2022-08-02T01:03:02;101357.17;;;21.26;14.79
70571;BME280;58135;50.948;-1.458;2022-08-02T01:05:28;101357.63;;;22.17;15.04
70571;BME280;58135;50.948;-1.458;2022-08-02T01:07:53;101354.13;;;21.33;14.90
70571;BME280;58135;50.948;-1.458;2022-08-02T01:10:19;101356.09;;;19.48;15.27
70571;BME280;58135;50.948;-1.458;2022-08-02T01:12:44;101357.96;;;21.23;14.84
70571;BME280;58135;50.948;-1.458;2022-08-02T01:15:10;101354.10;;;22.15;15.23
70571;BME280;58135;50.948;-1.458;2022-08-02T01:17:40;101354.94;;;20.33;15.29
70571;BME280;58135;50.948;-1.458;2022-08-02T01:20:07;101350.13;;;21.18;15.30
70571;BME280;58135;50.948;-1.458;2022-08-02T01:22:42;101351.97;;;22.94;15.51
70571;BME280;58135;50.948;-1.458;2022-08-02T01:25:01;101354.02;;;21.18;15.50
70571;BME280;58135;50.948;-1.458;2022-08-02T01:27:28;101355.83;;;21.12;15.37
70571;BME280;58135;50.948;-1.458;2022-08-02T01:29:44;101354.78;;;21.03;14.80
70571;BME280;58135;50.948;-1.458;2022-08-02T01:32:10;101350.84;;;20.77;15.39
70571;BME280;58135;50.948;-1.458;2022-08-02T01:34:37;101348.57;;;19.86;15.62
70571;BME280;58135;50.948;-1.458;2022-08-02T01:37:02;101345.35;;;20.75;15.14
70571;BME280;58135;50.948;-1.458;2022-08-02T01:39:26;101339.85;;;20.75;15.42
70571;BME280;58135;50.948;-1.458;2022-08-02T01:41:50;101341.87;;;21.58;15.56
70571;BME280;58135;50.948;-1.458;2022-08-02T01:44:16;101340.65;;;20.67;15.64
70571;BME280;58135;50.948;-1.458;2022-08-02T01:46:41;101342.92;;;20.59;15.65
70571;BME280;58135;50.948;-1.458;2022-08-02T01:49:11;101343.05;;;21.39;15.73
70571;BME280;58135;50.948;-1.458;2022-08-02T01:51:34;101341.57;;;21.29;15.42
70571;BME280;58135;50.948;-1.458;2022-08-02T01:53:57;101342.44;;;21.23;15.51
70571;BME280;58135;50.948;-1.458;2022-08-02T01:56:23;101339.12;;;21.22;14.96
70571;BME280;58135;50.948;-1.458;2022-08-02T01:58:48;101341.49;;;22.04;15.00
70571;BME280;58135;50.948;-1.458;2022-08-02T02:01:15;101342.02;;;20.35;15.31
70571;BME280;58135;50.948;-1.458;2022-08-02T02:03:39;101339.14;;;20.44;15.47
70571;BME280;58135;50.948;-1.458;2022-08-02T02:06:07;101336.08;;;20.47;15.13
70571;BME280;58135;50.948;-1.458;2022-08-02T02:08:35;101334.10;;;20.47;15.50
70571;BME280;58135;50.948;-1.458;2022-08-02T02:10:57;101330.09;;;21.35;14.94
70571;BME280;58135;50.948;-1.458;2022-08-02T02:13:22;101330.01;;;22.32;15.48
70571;BME280;58135;50.948;-1.458;2022-08-02T02:15:48;101328.93;;;20.67;15.45
70571;BME280;58135;50.948;-1.458;2022-08-02T02:18:17;101331.61;;;19.76;15.08
70571;BME280;58135;50.948;-1.458;2022-08-02T02:20:38;101329.87;;;19.81;13.60
70571;BME280;58135;50.948;-1.458;2022-08-02T02:23:03;101331.77;;;20.71;15.25
70571;BME280;58135;50.948;-1.458;2022-08-02T02:25:30;101330.04;;;20.70;15.76
70571;BME280;58135;50.948;-1.458;2022-08-02T02:27:59;101327.31;;;21.56;15.68
70571;BME280;58135;50.948;-1.458;2022-08-02T02:30:22;101323.09;;;19.74;15.78
70571;BME280;58135;50.948;-1.458;2022-08-02T02:32:46;101322.22;;;21.57;15.11
70571;BME280;58135;50.948;-1.458;2022-08-02T02:35:12;101315.58;;;22.45;15.51
70571;BME280;58135;50.948;-1.458;2022-08-02T02:37:37;101302.19;;;23.37;16.03
70571;BME280;58135;50.948;-1.458;2022-08-02T02:40:03;101301.21;;;19.94;16.00
70571;BME280;58135;50.948;-1.458;2022-08-02T02:42:29;101301.81;;;20.04;15.77
70571;BME280;58135;50.948;-1.458;2022-08-02T02:44:53;101296.53;;;21.03;15.47
70571;BME280;58135;50.948;-1.458;2022-08-02T02:47:19;101294.02;;;19.22;15.70
70571;BME280;58135;50.948;-1.458;2022-08-02T02:49:45;101289.60;;;22.60;15.71
70571;BME280;58135;50.948;-1.458;2022-08-02T02:52:10;101290.49;;;21.74;15.27
70571;BME280;58135;50.948;-1.458;2022-08-02T02:54:35;101294.51;;;21.78;15.45
70571;BME280;58135;50.948;-1.458;2022-08-02T02:57:02;101295.50;;;21.96;15.61
70571;BME280;58135;50.948;-1.458;2022-08-02T02:59:26;101296.10;;;22.06;15.34
70571;BME280;58135;50.948;-1.458;2022-08-02T03:01:52;101295.36;;;22.08;15.33
70571;BME280;58135;50.948;-1.458;2022-08-02T03:04:17;101287.31;;;21.27;15.72
70571;BME280;58135;50.948;-1.458;2022-08-02T03:06:42;101288.62;;;20.45;15.63
70571;BME280;58135;50.948;-1.458;2022-08-02T03:09:09;101289.10;;;22.16;15.91
70571;BME280;58135;50.948;-1.458;2022-08-02T03:11:34;101287.92;;;21.24;15.53
70571;BME280;58135;50.948;-1.458;2022-08-02T03:14:01;101286.86;;;21.33;15.84
70571;BME280;58135;50.948;-1.458;2022-08-02T03:16:24;101284.63;;;23.17;15.79
70571;BME280;58135;50.948;-1.458;2022-08-02T03:18:50;101291.43;;;21.29;14.70
70571;BME280;58135;50.948;-1.458;2022-08-02T03:21:15;101292.99;;;20.93;15.50
70571;BME280;58135;50.948;-1.458;2022-08-02T03:23:42;101295.76;;;20.21;15.41
70571;BME280;58135;50.948;-1.458;2022-08-02T03:26:07;101295.61;;;20.24;15.31
70571;BME280;58135;50.948;-1.458;2022-08-02T03:28:32;101298.54;;;21.81;15.22
70571;BME280;58135;50.948;-1.458;2022-08-02T03:30:57;101295.95;;;19.81;15.71
70571;BME280;58135;50.948;-1.458;2022-08-02T03:33:24;101296.21;;;19.65;15.82
70571;BME280;58135;50.948;-1.458;2022-08-02T03:35:51;101288.36;;;20.46;16.00
70571;BME280;58135;50.948;-1.458;2022-08-02T03:38:15;101290.64;;;20.59;15.32
70571;BME280;58135;50.948;-1.458;2022-08-02T03:40:40;101287.78;;;20.72;15.48
70571;BME280;58135;50.948;-1.458;2022-08-02T03:43:05;101288.65;;;21.57;15.14
70571;BME280;58135;50.948;-1.458;2022-08-02T03:45:31;101286.93;;;20.68;15.66
70571;BME280;58135;50.948;-1.458;2022-08-02T03:47:56;101283.33;;;20.79;15.93
70571;BME280;58135;50.948;-1.458;2022-08-02T03:50:21;101282.19;;;21.73;15.43
70571;BME280;58135;50.948;-1.458;2022-08-02T03:52:47;101276.93;;;19.82;15.04
70571;BME280;58135;50.948;-1.458;2022-08-02T03:55:12;101276.37;;;21.67;15.25
70571;BME280;58135;50.948;-1.458;2022-08-02T03:57:39;101277.65;;;21.46;14.71
70571;BME280;58135;50.948;-1.458;2022-08-02T04:00:04;101281.01;;;20.68;14.78
70571;BME280;58135;50.948;-1.458;2022-08-02T04:02:29;101276.75;;;21.56;15.65
70571;BME280;58135;50.948;-1.458;2022-08-02T04:04:54;101273.26;;;22.53;15.39
70571;BME280;58135;50.948;-1.458;2022-08-02T04:07:20;101275.46;;;21.66;15.43
70571;BME280;58135;50.948;-1.458;2022-08-02T04:09:45;101273.87;;;20.73;15.20
70571;BME280;58135;50.948;-1.458;2022-08-02T04:12:11;101272.73;;;21.63;15.02
70571;BME280;58135;50.948;-1.458;2022-08-02T04:14:36;101277.21;;;21.58;14.82
70571;BME280;58135;50.948;-1.458;2022-08-02T04:17:05;101276.22;;;20.67;16.09
70571;BME280;58135;50.948;-1.458;2022-08-02T04:19:31;101278.85;;;21.53;15.22
70571;BME280;58135;50.948;-1.458;2022-08-02T04:21:54;101280.93;;;20.68;16.09
70571;BME280;58135;50.948;-1.458;2022-08-02T04:24:22;101287.88;;;21.75;16.03
70571;BME280;58135;50.948;-1.458;2022-08-02T04:26:44;101292.10;;;22.50;15.84
70571;BME280;58135;50.948;-1.458;2022-08-02T04:29:09;101288.27;;;19.80;14.48
70571;BME280;58135;50.948;-1.458;2022-08-02T04:31:35;101289.86;;;20.45;15.22
70571;BME280;58135;50.948;-1.458;2022-08-02T04:34:01;101285.24;;;20.12;15.94
70571;BME280;58135;50.948;-1.458;2022-08-02T04:36:25;101282.42;;;20.33;15.60
70571;BME280;58135;50.948;-1.458;2022-08-02T04:38:51;101280.59;;;22.13;15.98
70571;BME280;58135;50.948;-1.458;2022-08-02T04:41:16;101278.30;;;22.26;15.28
70571;BME280;58135;50.948;-1.458;2022-08-02T04:43:42;101284.25;;;21.47;15.34
70571;BME280;58135;50.948;-1.458;2022-08-02T04:46:07;101283.96;;;19.85;15.64
70571;BME280;58135;50.948;-1.458;2022-08-02T04:48:33;101290.30;;;20.85;15.86
70571;BME280;58135;50.948;-1.458;2022-08-02T04:50:58;101292.92;;;21.89;16.02
70571;BME280;58135;50.948;-1.458;2022-08-02T04:53:24;101291.71;;;20.96;15.78
70571;BME280;58135;50.948;-1.458;2022-08-02T04:55:49;101291.87;;;20.13;14.87
70571;BME280;58135;50.948;-1.458;2022-08-02T04:58:15;101290.00;;;20.83;14.93
70571;BME280;58135;50.948;-1.458;2022-08-02T05:00:40;101291.03;;;20.82;15.35
70571;BME280;58135;50.948;-1.458;2022-08-02T05:03:06;101293.13;;;19.66;15.85
70571;BME280;58135;50.948;-1.458;2022-08-02T05:05:31;101292.16;;;19.80;15.96
70571;BME280;58135;50.948;-1.458;2022-08-02T05:07:57;101288.86;;;19.93;16.18
70571;BME280;58135;50.948;-1.458;2022-08-02T05:10:22;101288.24;;;19.17;15.56
70571;BME280;58135;50.948;-1.458;2022-08-02T05:12:48;101290.76;;;20.19;15.99
70571;BME280;58135;50.948;-1.458;2022-08-02T05:15:13;101288.60;;;19.96;16.12
70571;BME280;58135;50.948;-1.458;2022-08-02T05:17:39;101291.20;;;19.16;15.74
70571;BME280;58135;50.948;-1.458;2022-08-02T05:20:05;101297.84;;;21.98;16.22
70571;BME280;58135;50.948;-1.458;2022-08-02T05:22:30;101297.67;;;19.49;16.29
70571;BME280;58135;50.948;-1.458;2022-08-02T05:24:55;101295.19;;;20.46;15.74
70571;BME280;58135;50.948;-1.458;2022-08-02T05:27:21;101297.19;;;19.71;16.41
70571;BME280;58135;50.948;-1.458;2022-08-02T05:29:46;101302.99;;;22.44;15.59
70571;BME280;58135;50.948;-1.458;2022-08-02T05:32:12;101306.34;;;21.73;15.56
70571;BME280;58135;50.948;-1.458;2022-08-02T05:34:37;101310.32;;;20.89;15.19
70571;BME280;58135;50.948;-1.458;2022-08-02T05:37:02;101307.17;;;19.87;15.67
70571;BME280;58135;50.948;-1.458;2022-08-02T05:39:27;101308.35;;;23.48;16.24
70571;BME280;58135;50.948;-1.458;2022-08-02T05:41:53;101307.82;;;21.54;16.31
70571;BME280;58135;50.948;-1.458;2022-08-02T05:44:18;101313.76;;;23.36;16.10
70571;BME280;58135;50.948;-1.458;2022-08-02T05:46:44;101309.89;;;20.87;15.32
70571;BME280;58135;50.948;-1.458;2022-08-02T05:49:09;101308.61;;;21.94;15.18
70571;BME280;58135;50.948;-1.458;2022-08-02T05:51:36;101308.95;;;21.86;14.82
70571;BME280;58135;50.948;-1.458;2022-08-02T05:54:07;101309.14;;;20.98;15.58
70571;BME280;58135;50.948;-1.458;2022-08-02T05:56:32;101310.07;;;21.93;15.43
70571;BME280;58135;50.948;-1.458;2022-08-02T05:58:55;101306.67;;;20.29;15.62
70571;BME280;58135;50.948;-1.458;2022-08-02T06:01:21;101312.75;;;21.29;15.20
70571;BME280;58135;50.948;-1.458;2022-08-02T06:03:48;101308.32;;;22.27;15.78
70571;BME280;58135;50.948;-1.458;2022-08-02T06:06:11;101307.64;;;19.63;15.75
70571;BME280;58135;50.948;-1.458;2022-08-02T06:08:37;101306.26;;;23.25;15.87
70571;BME280;58135;50.948;-1.458;2022-08-02T06:11:00;101301.45;;;21.41;15.86
70571;BME280;58135;50.948;-1.458;2022-08-02T06:13:24;101301.71;;;20.24;15.68
70571;BME280;58135;50.948;-1.458;2022-08-02T06:15:50;101300.06;;;21.24;15.84
70571;BME280;58135;50.948;-1.458;2022-08-02T06:18:14;101297.67;;;21.50;15.65
70571;BME280;58135;50.948;-1.458;2022-08-02T06:20:40;101295.32;;;22.49;15.92
70571;BME280;58135;50.948;-1.458;2022-08-02T06:23:07;101292.98;;;20.83;15.83
70571;BME280;58135;50.948;-1.458;2022-08-02T06:25:33;101291.67;;;20.93;15.99
70571;BME280;58135;50.948;-1.458;2022-08-02T06:27:57;101295.64;;;20.97;15.92
70571;BME280;58135;50.948;-1.458;2022-08-02T06:30:22;101296.72;;;23.57;16.19
70571;BME280;58135;50.948;-1.458;2022-08-02T06:32:50;101294.94;;;21.64;16.41
70571;BME280;58135;50.948;-1.458;2022-08-02T06:35:13;101294.28;;;23.60;16.18
70571;BME280;58135;50.948;-1.458;2022-08-02T06:37:43;101298.82;;;22.17;15.81
70571;BME280;58135;50.948;-1.458;2022-08-02T06:40:10;101298.54;;;22.38;15.31
70571;BME280;58135;50.948;-1.458;2022-08-02T06:42:36;101298.09;;;21.55;15.68
70571;BME280;58135;50.948;-1.458;2022-08-02T06:44:55;101294.82;;;22.49;15.71
70571;BME280;58135;50.948;-1.458;2022-08-02T06:47:20;101293.01;;;19.79;15.39
70571;BME280;58135;50.948;-1.458;2022-08-02T06:49:46;101292.77;;;21.67;15.47
70571;BME280;58135;50.948;-1.458;2022-08-02T06:52:11;101290.65;;;23.57;15.66
70571;BME280;58135;50.948;-1.458;2022-08-02T06:54:36;101289.39;;;20.57;15.91
70571;BME280;58135;50.948;-1.458;2022-08-02T06:57:02;101288.60;;;22.61;15.34
70571;BME280;58135;50.948;-1.458;2022-08-02T06:59:27;101287.35;;;23.75;15.76
70571;BME280;58135;50.948;-1.458;2022-08-02T07:01:53;101290.85;;;21.41;15.86
70571;BME280;58135;50.948;-1.458;2022-08-02T07:04:18;101288.41;;;22.48;15.64
70571;BME280;58135;50.948;-1.458;2022-08-02T07:06:43;101288.72;;;23.54;15.62
70571;BME280;58135;50.948;-1.458;2022-08-02T07:09:09;101290.77;;;22.92;15.65
70571;BME280;58135;50.948;-1.458;2022-08-02T07:11:34;101292.62;;;23.13;15.57
70571;BME280;58135;50.948;-1.458;2022-08-02T07:14:00;101294.97;;;22.31;15.53
70571;BME280;58135;50.948;-1.458;2022-08-02T07:16:25;101299.49;;;23.16;15.53
70571;BME280;58135;50.948;-1.458;2022-08-02T07:18:50;101299.20;;;23.31;15.42
70571;BME280;58135;50.948;-1.458;2022-08-02T07:21:16;101296.15;;;21.53;15.10
70571;BME280;58135;50.948;-1.458;2022-08-02T07:23:41;101294.76;;;24.12;14.65
70571;BME280;58135;50.948;-1.458;2022-08-02T07:26:07;101293.55;;;23.10;14.85
70571;BME280;58135;50.948;-1.458;2022-08-02T07:28:32;101292.40;;;20.55;14.54
70571;BME280;58135;50.948;-1.458;2022-08-02T07:30:58;101292.44;;;21.57;14.36
70571;BME280;58135;50.948;-1.458;2022-08-02T07:33:23;101293.68;;;22.71;14.87
70571;BME280;58135;50.948;-1.458;2022-08-02T07:35:48;101293.39;;;23.87;15.34
70571;BME280;58135;50.948;-1.458;2022-08-02T07:38:14;101292.28;;;23.23;15.13
70571;BME280;58135;50.948;-1.458;2022-08-02T07:40:39;101297.37;;;23.56;15.17
70571;BME280;58135;50.948;-1.458;2022-08-02T07:43:05;101294.25;;;22.82;14.87
70571;BME280;58135;50.948;-1.458;2022-08-02T07:45:31;101298.15;;;23.04;15.00
70571;BME280;58135;50.948;-1.458;2022-08-02T07:47:56;101295.81;;;22.40;15.00
70571;BME280;58135;50.948;-1.458;2022-08-02T07:50:22;101294.47;;;24.29;14.64
70571;BME280;58135;50.948;-1.458;2022-08-02T07:52:47;101299.70;;;24.21;14.44
70571;BME280;58135;50.948;-1.458;2022-08-02T07:55:14;101298.96;;;22.80;14.37
70571;BME280;58135;50.948;-1.458;2022-08-02T07:57:38;101300.97;;;23.88;14.16
70571;BME280;58135;50.948;-1.458;2022-08-02T08:00:04;101299.20;;;25.06;13.52
70571;BME280;58135;50.948;-1.458;2022-08-02T08:02:28;101298.42;;;24.43;14.55
70571;BME280;58135;50.948;-1.458;2022-08-02T08:04:54;101297.95;;;25.49;14.53
70571;BME280;58135;50.948;-1.458;2022-08-02T08:07:19;101299.49;;;23.90;14.16
70571;BME280;58135;50.948;-1.458;2022-08-02T08:09:45;101300.36;;;24.76;14.33
70571;BME280;58135;50.948;-1.458;2022-08-02T08:12:11;101305.10;;;23.92;14.52
70571;BME280;58135;50.948;-1.458;2022-08-02T08:14:37;101302.95;;;23.98;14.38
70571;BME280;58135;50.948;-1.458;2022-08-02T08:17:01;101301.99;;;24.09;13.74
70571;BME280;58135;50.948;-1.458;2022-08-02T08:19:26;101302.06;;;23.35;14.34
70571;BME280;58135;50.948;-1.458;2022-08-02T08:21:52;101301.31;;;24.55;14.34
70571;BME280;58135;50.948;-1.458;2022-08-02T08:24:17;101298.48;;;23.95;14.50
70571;BME280;58135;50.948;-1.458;2022-08-02T08:26:43;101294.60;;;25.22;14.35
70571;BME280;58135;50.948;-1.458;2022-08-02T08:29:08;101293.27;;;24.71;14.23
70571;BME280;58135;50.948;-1.458;2022-08-02T08:31:34;101295.06;;;25.78;13.68
70571;BME280;58135;50.948;-1.458;2022-08-02T08:33:59;101289.26;;;24.07;13.89
70571;BME280;58135;50.948;-1.458;2022-08-02T08:36:24;101292.49;;;24.07;13.77
70571;BME280;58135;50.948;-1.458;2022-08-02T08:38:50;101291.75;;;23.28;13.91
70571;BME280;58135;50.948;-1.458;2022-08-02T08:41:16;101292.96;;;23.57;13.42
70571;BME280;58135;50.948;-1.458;2022-08-02T08:43:41;101292.72;;;23.84;13.21
70571;BME280;58135;50.948;-1.458;2022-08-02T08:46:07;101290.39;;;25.82;13.60
70571;BME280;58135;50.948;-1.458;2022-08-02T08:48:37;101288.75;;;24.15;13.92
70571;BME280;58135;50.948;-1.458;2022-08-02T08:51:00;101288.16;;;25.26;14.07
70571;BME280;58135;50.948;-1.458;2022-08-02T08:53:23;101284.80;;;23.81;13.22
70571;BME280;58135;50.948;-1.458;2022-08-02T08:55:51;101289.81;;;23.66;13.53
70571;BME280;58135;50.948;-1.458;2022-08-02T08:58:13;101285.77;;;24.86;13.09
70571;BME280;58135;50.948;-1.458;2022-08-02T09:00:39;101284.72;;;23.24;13.65
70571;BME280;58135;50.948;-1.458;2022-08-02T09:03:06;101288.98;;;25.29;13.52
70571;BME280;58135;50.948;-1.458;2022-08-02T09:05:30;101286.51;;;25.42;13.09
70571;BME280;58135;50.948;-1.458;2022-08-02T09:07:55;101288.33;;;26.52;13.54
70571;BME280;58135;50.948;-1.458;2022-08-02T09:10:37;101288.00;;;25.70;13.28
70571;BME280;58135;50.948;-1.458;2022-08-02T09:15:11;101284.24;;;23.88;13.04
70571;BME280;58135;50.948;-1.458;2022-08-02T09:20:06;101285.02;;;26.81;13.04
70571;BME280;58135;50.948;-1.458;2022-08-02T09:22:28;101285.05;;;26.93;13.61
70571;BME280;58135;50.948;-1.458;2022-08-02T09:24:53;101286.19;;;24.30;13.53
70571;BME280;58135;50.948;-1.458;2022-08-02T09:27:21;101284.23;;;25.39;13.39
70571;BME280;58135;50.948;-1.458;2022-08-02T09:29:45;101278.67;;;25.47;13.15
70571;BME280;58135;50.948;-1.458;2022-08-02T09:32:09;101281.51;;;24.91;13.19
70571;BME280;58135;50.948;-1.458;2022-08-02T09:34:46;101283.60;;;25.76;13.21
70571;BME280;58135;50.948;-1.458;2022-08-02T09:37:00;101280.99;;;25.03;12.91
70571;BME280;58135;50.948;-1.458;2022-08-02T09:39:31;101286.82;;;24.23;12.43
70571;BME280;58135;50.948;-1.458;2022-08-02T09:41:51;101294.29;;;25.85;13.16
70571;BME280;58135;50.948;-1.458;2022-08-02T09:44:16;101294.84;;;25.91;12.81
70571;BME280;58135;50.948;-1.458;2022-08-02T09:46:44;101298.18;;;26.53;12.99
70571;BME280;58135;50.948;-1.458;2022-08-02T09:49:09;101298.74;;;24.68;12.85
70571;BME280;58135;50.948;-1.458;2022-08-02T09:51:34;101296.54;;;26.61;13.17
70571;BME280;58135;50.948;-1.458;2022-08-02T09:54:00;101296.84;;;25.89;12.78
70571;BME280;58135;50.948;-1.458;2022-08-02T09:56:26;101294.13;;;25.86;12.79
70571;BME280;58135;50.948;-1.458;2022-08-02T09:58:50;101298.52;;;24.95;13.16
70571;BME280;58135;50.948;-1.458;2022-08-02T10:01:14;101297.79;;;25.82;13.10
70571;BME280;58135;50.948;-1.458;2022-08-02T10:06:05;101302.13;;;25.51;13.07
70571;BME280;58135;50.948;-1.458;2022-08-02T10:08:36;101303.86;;;24.85;13.26
70571;BME280;58135;50.948;-1.458;2022-08-02T10:10:57;101299.17;;;25.14;13.09
70571;BME280;58135;50.948;-1.458;2022-08-02T10:13:21;101298.63;;;24.51;13.29
70571;BME280;58135;50.948;-1.458;2022-08-02T10:15:47;101297.44;;;27.13;12.99
70571;BME280;58135;50.948;-1.458;2022-08-02T10:18:12;101292.58;;;26.64;13.14
70571;BME280;58135;50.948;-1.458;2022-08-02T10:20:41;101298.11;;;26.06;12.78
70571;BME280;58135;50.948;-1.458;2022-08-02T10:23:04;101294.20;;;26.95;12.98
70571;BME280;58135;50.948;-1.458;2022-08-02T10:25:35;101291.33;;;25.83;12.96
70571;BME280;58135;50.948;-1.458;2022-08-02T10:27:56;101294.29;;;26.66;13.01
70571;BME280;58135;50.948;-1.458;2022-08-02T10:30:21;101294.02;;;25.81;13.01
70571;BME280;58135;50.948;-1.458;2022-08-02T10:32:46;101298.05;;;24.94;12.96
70571;BME280;58135;50.948;-1.458;2022-08-02T10:35:13;101298.81;;;25.82;12.96
70571;BME280;58135;50.948;-1.458;2022-08-02T10:37:37;101301.21;;;25.86;12.73
70571;BME280;58135;50.948;-1.458;2022-08-02T10:40:01;101294.06;;;25.79;13.00
70571;BME280;58135;50.948;-1.458;2022-08-02T10:42:43;101293.37;;;23.90;13.04
70571;BME280;58135;50.948;-1.458;2022-08-02T10:47:21;101292.38;;;25.64;13.01
70571;BME280;58135;50.948;-1.458;2022-08-02T10:49:47;101295.64;;;25.27;13.06
70571;BME280;58135;50.948;-1.458;2022-08-02T10:52:08;101292.84;;;26.68;12.95
70571;BME280;58135;50.948;-1.458;2022-08-02T10:54:36;101289.39;;;26.19;12.86
70571;BME280;58135;50.948;-1.458;2022-08-02T10:57:00;101279.87;;;27.80;12.91
70571;BME280;58135;50.948;-1.458;2022-08-02T10:59:27;101280.65;;;26.09;12.88
70571;BME280;58135;50.948;-1.458;2022-08-02T11:01:50;101280.77;;;26.89;12.43
70571;BME280;58135;50.948;-1.458;2022-08-02T11:04:16;101279.14;;;26.04;12.51
70571;BME280;58135;50.948;-1.458;2022-08-02T11:09:26;101284.73;;;24.87;12.42
70571;BME280;58135;50.948;-1.458;2022-08-02T11:11:32;101280.57;;;27.76;12.23
70571;BME280;58135;50.948;-1.458;2022-08-02T11:13:59;101277.74;;;26.12;12.23
70571;BME280;58135;50.948;-1.458;2022-08-02T11:19:02;101282.54;;;26.22;12.35
70571;BME280;58135;50.948;-1.458;2022-08-02T11:21:20;101278.05;;;28.10;12.42
70571;BME280;58135;50.948;-1.458;2022-08-02T11:23:39;101283.92;;;24.63;12.40
70571;BME280;58135;50.948;-1.458;2022-08-02T11:28:30;101280.26;;;25.07;12.33
70571;BME280;58135;50.948;-1.458;2022-08-02T11:30:56;101283.63;;;27.96;12.16
70571;BME280;58135;50.948;-1.458;2022-08-02T11:33:29;101281.49;;;28.11;12.17
70571;BME280;58135;50.948;-1.458;2022-08-02T11:35:46;101286.87;;;27.37;12.15
70571;BME280;58135;50.948;-1.458;2022-08-02T11:38:15;101295.07;;;27.62;12.06
70571;BME280;58135;50.948;-1.458;2022-08-02T11:40:37;101292.47;;;26.57;12.24
70571;BME280;58135;50.948;-1.458;2022-08-02T11:43:02;101293.40;;;27.39;12.10
70571;BME280;58135;50.948;-1.458;2022-08-02T11:45:28;101291.09;;;26.29;12.09
70571;BME280;58135;50.948;-1.458;2022-08-02T11:47:53;101289.25;;;24.88;12.09
70571;BME280;58135;50.948;-1.458;2022-08-02T11:50:20;101287.14;;;25.61;12.22
70571;BME280;58135;50.948;-1.458;2022-08-02T11:52:45;101282.47;;;26.50;12.29
70571;BME280;58135;50.948;-1.458;2022-08-02T11:55:10;101278.46;;;28.59;12.21
70571;BME280;58135;50.948;-1.458;2022-08-02T11:57:36;101280.03;;;28.02;12.18
70571;BME280;58135;50.948;-1.458;2022-08-02T12:00:01;101281.27;;;29.05;12.07
70571;BME280;58135;50.948;-1.458;2022-08-02T12:02:27;101281.45;;;26.64;11.98
70571;BME280;58135;50.948;-1.458;2022-08-02T12:04:53;101281.03;;;27.47;11.97
70571;BME280;58135;50.948;-1.458;2022-08-02T12:07:17;101278.66;;;26.55;11.99
70571;BME280;58135;50.948;-1.458;2022-08-02T12:09:42;101279.32;;;27.43;11.97
70571;BME280;58135;50.948;-1.458;2022-08-02T12:12:08;101280.32;;;27.18;12.01
70571;BME280;58135;50.948;-1.458;2022-08-02T12:14:40;101280.77;;;26.02;12.06
70571;BME280;58135;50.948;-1.458;2022-08-02T12:16:59;101278.13;;;27.36;12.11
70571;BME280;58135;50.948;-1.458;2022-08-02T12:19:25;101279.36;;;24.43;12.33
70571;BME280;58135;50.948;-1.458;2022-08-02T12:24:26;101276.82;;;27.32;12.23
70571;BME280;58135;50.948;-1.458;2022-08-02T12:26:41;101276.05;;;25.31;12.34
70571;BME280;58135;50.948;-1.458;2022-08-02T12:29:06;101268.71;;;27.17;12.28
70571;BME280;58135;50.948;-1.458;2022-08-02T12:31:40;101271.25;;;26.24;12.19
70571;BME280;58135;50.948;-1.458;2022-08-02T12:33:56;101268.84;;;25.33;12.36
70571;BME280;58135;50.948;-1.458;2022-08-02T12:36:24;101267.73;;;25.68;12.37
70571;BME280;58135;50.948;-1.458;2022-08-02T12:38:51;101264.31;;;25.05;12.28
70571;BME280;58135;50.948;-1.458;2022-08-02T12:41:13;101261.89;;;26.94;12.15
70571;BME280;58135;50.948;-1.458;2022-08-02T12:43:41;101258.33;;;25.17;12.17
70571;BME280;58135;50.948;-1.458;2022-08-02T12:46:03;101258.82;;;26.29;12.19
70571;BME280;58135;50.948;-1.458;2022-08-02T12:48:31;101261.19;;;27.37;12.24
70571;BME280;58135;50.948;-1.458;2022-08-02T12:50:54;101261.97;;;26.45;12.18